sensor_id;sensor_type;location;lat;lon;timestamp;P1;durP1;ratioP1;P2;durP2;ratioP2
6475;SDS011;3271;51.910;5.840;2023-02-11T00:01:07;10.65;;;6.18;;
6475;SDS011;3271;51.910;5.840;2023-02-11T00:03:33;10.02;;;6.30;;
6475;SDS011;3271;51.910;5.840;2023-02-11T00:06:00;12.57;;;6.20;;
6475;SDS011;3271;51.910;5.840;2023-02-11T00:08:26;7.70;;;5.22;;
6475;SDS011;3271;51.910;5.840;2023-02-11T00:10:53;13.93;;;5.32;;
6475;SDS011;3271;51.910;5.840;2023-02-11T00:13:19;10.30;;;5.18;;
6475;SDS011;3271;51.910;5.840;2023-02-11T00:15:45;11.52;;;5.47;;
6475;SDS011;3271;51.910;5.840;2023-02-11T00:18:11;9.07;;;5.75;;
6475;SDS011;3271;51.910;5.840;2023-02-11T00:20:40;8.80;;;5.57;;
6475;SDS011;3271;51.910;5.840;2023-02-11T00:23:06;7.55;;;4.80;;
6475;SDS011;3271;51.910;5.840;2023-02-11T00:25:32;9.15;;;5.28;;
6475;SDS011;3271;51.910;5.840;2023-02-11T00:27:58;7.88;;;4.95;;
6475;SDS011;3271;51.910;5.840;2023-02-11T00:30:24;10.75;;;6.00;;
6475;SDS011;3271;51.910;5.840;2023-02-11T00:32:50;9.75;;;6.40;;
6475;SDS011;3271;51.910;5.840;2023-02-11T00:35:16;8.60;;;5.43;;
6475;SDS011;3271;51.910;5.840;2023-02-11T00:37:42;10.30;;;4.82;;
6475;SDS011;3271;51.910;5.840;2023-02-11T00:40:08;11.18;;;5.65;;
6475;SDS011;3271;51.910;5.840;2023-02-11T00:42:34;8.73;;;5.05;;
6475;SDS011;3271;51.910;5.840;2023-02-11T00:45:01;10.07;;;5.72;;
6475;SDS011;3271;51.910;5.840;2023-02-11T00:47:27;13.45;;;6.55;;
6475;SDS011;3271;51.910;5.840;2023-02-11T00:49:53;9.32;;;5.80;;
6475;SDS011;3271;51.910;5.840;2023-02-11T00:52:19;7.60;;;4.97;;
6475;SDS011;3271;51.910;5.840;2023-02-11T00:54:45;9.32;;;4.45;;
6475;SDS011;3271;51.910;5.840;2023-02-11T00:57:10;9.18;;;5.07;;
6475;SDS011;3271;51.910;5.840;2023-02-11T00:59:36;12.60;;;5.45;;
6475;SDS011;3271;51.910;5.840;2023-02-11T01:02:02;12.27;;;5.63;;
6475;SDS011;3271;51.910;5.840;2023-02-11T01:04:28;9.55;;;4.97;;
6475;SDS011;3271;51.910;5.840;2023-02-11T01:06:54;9.48;;;4.50;;
6475;SDS011;3271;51.910;5.840;2023-02-11T01:09:20;7.57;;;4.82;;
6475;SDS011;3271;51.910;5.840;2023-02-11T01:11:46;11.18;;;5.22;;
6475;SDS011;3271;51.910;5.840;2023-02-11T01:14:12;7.45;;;4.47;;
6475;SDS011;3271;51.910;5.840;2023-02-11T01:16:38;9.13;;;5.00;;
6475;SDS011;3271;51.910;5.840;2023-02-11T01:19:04;9.90;;;4.43;;
6475;SDS011;3271;51.910;5.840;2023-02-11T01:21:30;13.10;;;5.07;;
6475;SDS011;3271;51.910;5.840;2023-02-11T01:23:56;9.45;;;5.03;;
6475;SDS011;3271;51.910;5.840;2023-02-11T01:26:22;9.40;;;5.15;;
6475;SDS011;3271;51.910;5.840;2023-02-11T01:28:48;8.40;;;4.75;;
6475;SDS011;3271;51.910;5.840;2023-02-11T01:31:14;10.65;;;5.18;;
6475;SDS011;3271;51.910;5.840;2023-02-11T01:33:40;10.50;;;5.05;;
6475;SDS011;3271;51.910;5.840;2023-02-11T01:36:06;8.90;;;4.60;;
6475;SDS011;3271;51.910;5.840;2023-02-11T01:38:33;8.98;;;4.78;;
6475;SDS011;3271;51.910;5.840;2023-02-11T01:41:03;12.55;;;5.05;;
6475;SDS011;3271;51.910;5.840;2023-02-11T01:43:30;7.72;;;4.68;;
6475;SDS011;3271;51.910;5.840;2023-02-11T01:48:27;10.23;;;5.55;;
6475;SDS011;3271;51.910;5.840;2023-02-11T01:50:56;8.38;;;5.15;;
6475;SDS011;3271;51.910;5.840;2023-02-11T01:53:24;9.43;;;4.88;;
6475;SDS011;3271;51.910;5.840;2023-02-11T01:56:09;9.82;;;4.15;;
6475;SDS011;3271;51.910;5.840;2023-02-11T01:58:56;11.25;;;5.28;;
6475;SDS011;3271;51.910;5.840;2023-02-11T02:01:24;9.38;;;4.50;;
6475;SDS011;3271;51.910;5.840;2023-02-11T02:03:52;8.93;;;5.67;;
6475;SDS011;3271;51.910;5.840;2023-02-11T02:06:31;11.23;;;4.50;;
6475;SDS011;3271;51.910;5.840;2023-02-11T02:09:05;10.35;;;5.45;;
6475;SDS011;3271;51.910;5.840;2023-02-11T02:11:34;9.30;;;4.00;;
6475;SDS011;3271;51.910;5.840;2023-02-11T02:14:00;12.50;;;4.07;;
6475;SDS011;3271;51.910;5.840;2023-02-11T02:16:29;9.30;;;5.13;;
6475;SDS011;3271;51.910;5.840;2023-02-11T02:26:59;7.75;;;4.20;;
6475;SDS011;3271;51.910;5.840;2023-02-11T02:29:47;8.50;;;4.40;;
6475;SDS011;3271;51.910;5.840;2023-02-11T02:32:22;7.40;;;4.70;;
6475;SDS011;3271;51.910;5.840;2023-02-11T02:37:25;8.00;;;4.68;;
6475;SDS011;3271;51.910;5.840;2023-02-11T02:39:52;10.80;;;4.57;;
6475;SDS011;3271;51.910;5.840;2023-02-11T02:42:18;8.63;;;4.07;;
6475;SDS011;3271;51.910;5.840;2023-02-11T02:44:48;7.80;;;4.22;;
6475;SDS011;3271;51.910;5.840;2023-02-11T02:47:15;7.80;;;4.15;;
6475;SDS011;3271;51.910;5.840;2023-02-11T02:49:41;10.60;;;4.20;;
6475;SDS011;3271;51.910;5.840;2023-02-11T02:52:15;9.02;;;4.38;;
6475;SDS011;3271;51.910;5.840;2023-02-11T03:02:48;7.85;;;3.22;;
6475;SDS011;3271;51.910;5.840;2023-02-11T03:05:17;10.10;;;4.43;;
6475;SDS011;3271;51.910;5.840;2023-02-11T03:10:20;8.80;;;4.33;;
6475;SDS011;3271;51.910;5.840;2023-02-11T03:12:48;9.45;;;4.50;;
6475;SDS011;3271;51.910;5.840;2023-02-11T03:15:14;9.02;;;4.28;;
6475;SDS011;3271;51.910;5.840;2023-02-11T03:17:43;8.40;;;4.68;;
6475;SDS011;3271;51.910;5.840;2023-02-11T03:20:11;6.40;;;5.00;;
6475;SDS011;3271;51.910;5.840;2023-02-11T03:22:48;11.43;;;5.57;;
6475;SDS011;3271;51.910;5.840;2023-02-11T03:25:15;11.95;;;4.55;;
6475;SDS011;3271;51.910;5.840;2023-02-11T03:27:51;13.02;;;4.95;;
6475;SDS011;3271;51.910;5.840;2023-02-11T03:30:25;8.37;;;4.13;;
6475;SDS011;3271;51.910;5.840;2023-02-11T03:32:55;8.98;;;4.50;;
6475;SDS011;3271;51.910;5.840;2023-02-11T03:35:32;9.93;;;4.70;;
6475;SDS011;3271;51.910;5.840;2023-02-11T03:38:11;9.82;;;4.75;;
6475;SDS011;3271;51.910;5.840;2023-02-11T03:40:38;9.90;;;4.38;;
6475;SDS011;3271;51.910;5.840;2023-02-11T03:43:15;7.88;;;4.88;;
6475;SDS011;3271;51.910;5.840;2023-02-11T03:45:42;9.77;;;5.40;;
6475;SDS011;3271;51.910;5.840;2023-02-11T03:48:22;9.65;;;5.20;;
6475;SDS011;3271;51.910;5.840;2023-02-11T03:50:50;13.38;;;4.85;;
6475;SDS011;3271;51.910;5.840;2023-02-11T03:53:16;11.50;;;5.80;;
6475;SDS011;3271;51.910;5.840;2023-02-11T03:55:44;15.52;;;5.82;;
6475;SDS011;3271;51.910;5.840;2023-02-11T03:58:11;10.65;;;5.28;;
6475;SDS011;3271;51.910;5.840;2023-02-11T04:00:38;11.05;;;5.28;;
6475;SDS011;3271;51.910;5.840;2023-02-11T04:03:05;11.90;;;5.55;;
6475;SDS011;3271;51.910;5.840;2023-02-11T04:05:31;8.90;;;4.75;;
6475;SDS011;3271;51.910;5.840;2023-02-11T04:07:57;11.52;;;6.05;;
6475;SDS011;3271;51.910;5.840;2023-02-11T04:10:23;11.77;;;6.28;;
6475;SDS011;3271;51.910;5.840;2023-02-11T04:12:49;7.13;;;5.47;;
6475;SDS011;3271;51.910;5.840;2023-02-11T04:15:15;10.55;;;5.10;;
6475;SDS011;3271;51.910;5.840;2023-02-11T04:17:42;12.05;;;5.60;;
6475;SDS011;3271;51.910;5.840;2023-02-11T04:20:08;13.10;;;6.70;;
6475;SDS011;3271;51.910;5.840;2023-02-11T04:22:34;10.55;;;6.05;;
6475;SDS011;3271;51.910;5.840;2023-02-11T04:25:00;9.13;;;5.20;;
6475;SDS011;3271;51.910;5.840;2023-02-11T04:27:26;12.60;;;6.28;;
6475;SDS011;3271;51.910;5.840;2023-02-11T04:29:52;13.15;;;6.70;;
6475;SDS011;3271;51.910;5.840;2023-02-11T04:32:18;15.13;;;6.38;;
6475;SDS011;3271;51.910;5.840;2023-02-11T04:34:44;8.85;;;5.50;;
6475;SDS011;3271;51.910;5.840;2023-02-11T04:37:12;10.95;;;5.88;;
6475;SDS011;3271;51.910;5.840;2023-02-11T04:39:38;11.95;;;5.97;;
6475;SDS011;3271;51.910;5.840;2023-02-11T04:42:04;11.25;;;6.65;;
6475;SDS011;3271;51.910;5.840;2023-02-11T04:44:30;9.55;;;5.13;;
6475;SDS011;3271;51.910;5.840;2023-02-11T04:47:00;10.77;;;6.45;;
6475;SDS011;3271;51.910;5.840;2023-02-11T04:49:28;12.85;;;6.90;;
6475;SDS011;3271;51.910;5.840;2023-02-11T04:51:54;11.52;;;6.15;;
6475;SDS011;3271;51.910;5.840;2023-02-11T04:54:20;8.95;;;6.47;;
6475;SDS011;3271;51.910;5.840;2023-02-11T04:59:15;12.52;;;6.00;;
6475;SDS011;3271;51.910;5.840;2023-02-11T05:01:41;12.25;;;7.32;;
6475;SDS011;3271;51.910;5.840;2023-02-11T05:04:16;9.00;;;5.80;;
6475;SDS011;3271;51.910;5.840;2023-02-11T05:06:42;12.93;;;6.57;;
6475;SDS011;3271;51.910;5.840;2023-02-11T05:09:09;9.20;;;6.13;;
6475;SDS011;3271;51.910;5.840;2023-02-11T05:11:35;11.43;;;6.60;;
6475;SDS011;3271;51.910;5.840;2023-02-11T05:14:03;10.88;;;6.95;;
6475;SDS011;3271;51.910;5.840;2023-02-11T05:16:34;11.77;;;7.00;;
6475;SDS011;3271;51.910;5.840;2023-02-11T05:19:02;15.65;;;7.22;;
6475;SDS011;3271;51.910;5.840;2023-02-11T05:21:28;11.80;;;5.75;;
6475;SDS011;3271;51.910;5.840;2023-02-11T05:23:54;10.73;;;6.57;;
6475;SDS011;3271;51.910;5.840;2023-02-11T05:26:20;12.88;;;7.63;;
6475;SDS011;3271;51.910;5.840;2023-02-11T05:28:46;10.88;;;6.32;;
6475;SDS011;3271;51.910;5.840;2023-02-11T05:31:12;15.20;;;8.50;;
6475;SDS011;3271;51.910;5.840;2023-02-11T05:33:38;10.13;;;7.55;;
6475;SDS011;3271;51.910;5.840;2023-02-11T05:36:19;11.50;;;6.95;;
6475;SDS011;3271;51.910;5.840;2023-02-11T05:38:45;11.60;;;7.32;;
6475;SDS011;3271;51.910;5.840;2023-02-11T05:41:11;13.70;;;7.53;;
6475;SDS011;3271;51.910;5.840;2023-02-11T05:43:37;11.93;;;7.65;;
6475;SDS011;3271;51.910;5.840;2023-02-11T05:46:03;9.65;;;6.80;;
6475;SDS011;3271;51.910;5.840;2023-02-11T05:48:29;12.85;;;7.88;;
6475;SDS011;3271;51.910;5.840;2023-02-11T05:50:55;12.73;;;7.80;;
6475;SDS011;3271;51.910;5.840;2023-02-11T05:53:23;12.43;;;8.20;;
6475;SDS011;3271;51.910;5.840;2023-02-11T05:55:49;10.90;;;7.35;;
6475;SDS011;3271;51.910;5.840;2023-02-11T05:58:21;14.23;;;8.02;;
6475;SDS011;3271;51.910;5.840;2023-02-11T06:00:49;9.70;;;7.22;;
6475;SDS011;3271;51.910;5.840;2023-02-11T06:03:15;11.35;;;7.57;;
6475;SDS011;3271;51.910;5.840;2023-02-11T06:05:41;12.45;;;7.97;;
6475;SDS011;3271;51.910;5.840;2023-02-11T06:08:07;13.02;;;8.30;;
6475;SDS011;3271;51.910;5.840;2023-02-11T06:10:33;13.25;;;8.05;;
6475;SDS011;3271;51.910;5.840;2023-02-11T06:13:00;16.40;;;8.95;;
6475;SDS011;3271;51.910;5.840;2023-02-11T06:15:26;12.73;;;7.85;;
6475;SDS011;3271;51.910;5.840;2023-02-11T06:17:52;12.15;;;8.38;;
6475;SDS011;3271;51.910;5.840;2023-02-11T06:20:18;12.60;;;7.70;;
6475;SDS011;3271;51.910;5.840;2023-02-11T06:22:44;12.38;;;8.40;;
6475;SDS011;3271;51.910;5.840;2023-02-11T06:25:10;12.60;;;8.40;;
6475;SDS011;3271;51.910;5.840;2023-02-11T06:27:36;11.93;;;8.27;;
6475;SDS011;3271;51.910;5.840;2023-02-11T06:30:03;13.73;;;9.15;;
6475;SDS011;3271;51.910;5.840;2023-02-11T06:32:29;15.00;;;9.30;;
6475;SDS011;3271;51.910;5.840;2023-02-11T06:34:55;16.05;;;9.02;;
6475;SDS011;3271;51.910;5.840;2023-02-11T06:37:21;14.40;;;8.80;;
6475;SDS011;3271;51.910;5.840;2023-02-11T06:39:47;13.40;;;8.85;;
6475;SDS011;3271;51.910;5.840;2023-02-11T06:42:13;14.35;;;9.40;;
6475;SDS011;3271;51.910;5.840;2023-02-11T06:44:39;15.23;;;9.93;;
6475;SDS011;3271;51.910;5.840;2023-02-11T06:47:05;17.92;;;9.73;;
6475;SDS011;3271;51.910;5.840;2023-02-11T06:49:31;17.05;;;10.52;;
6475;SDS011;3271;51.910;5.840;2023-02-11T06:51:57;15.60;;;10.57;;
6475;SDS011;3271;51.910;5.840;2023-02-11T06:54:23;17.67;;;10.30;;
6475;SDS011;3271;51.910;5.840;2023-02-11T06:56:49;16.42;;;10.10;;
6475;SDS011;3271;51.910;5.840;2023-02-11T06:59:16;16.95;;;10.98;;
6475;SDS011;3271;51.910;5.840;2023-02-11T07:01:42;19.23;;;11.02;;
6475;SDS011;3271;51.910;5.840;2023-02-11T07:04:08;16.63;;;10.00;;
6475;SDS011;3271;51.910;5.840;2023-02-11T07:06:34;17.77;;;10.45;;
6475;SDS011;3271;51.910;5.840;2023-02-11T07:09:01;18.95;;;10.55;;
6475;SDS011;3271;51.910;5.840;2023-02-11T07:11:28;15.80;;;10.30;;
6475;SDS011;3271;51.910;5.840;2023-02-11T07:13:55;16.52;;;10.30;;
6475;SDS011;3271;51.910;5.840;2023-02-11T07:16:21;14.18;;;9.60;;
6475;SDS011;3271;51.910;5.840;2023-02-11T07:18:47;17.05;;;11.38;;
6475;SDS011;3271;51.910;5.840;2023-02-11T07:21:14;17.40;;;10.90;;
6475;SDS011;3271;51.910;5.840;2023-02-11T07:23:41;18.02;;;11.35;;
6475;SDS011;3271;51.910;5.840;2023-02-11T07:26:08;16.50;;;10.80;;
6475;SDS011;3271;51.910;5.840;2023-02-11T07:28:42;18.17;;;11.27;;
6475;SDS011;3271;51.910;5.840;2023-02-11T07:39:58;20.20;;;11.52;;
6475;SDS011;3271;51.910;5.840;2023-02-11T07:42:24;20.45;;;12.38;;
6475;SDS011;3271;51.910;5.840;2023-02-11T07:44:50;17.65;;;11.48;;
6475;SDS011;3271;51.910;5.840;2023-02-11T07:47:16;18.40;;;11.45;;
6475;SDS011;3271;51.910;5.840;2023-02-11T07:49:42;18.20;;;12.90;;
6475;SDS011;3271;51.910;5.840;2023-02-11T07:52:08;17.33;;;11.75;;
6475;SDS011;3271;51.910;5.840;2023-02-11T07:54:34;25.35;;;14.48;;
6475;SDS011;3271;51.910;5.840;2023-02-11T07:57:00;20.50;;;13.35;;
6475;SDS011;3271;51.910;5.840;2023-02-11T07:59:25;17.65;;;12.45;;
6475;SDS011;3271;51.910;5.840;2023-02-11T08:01:51;23.38;;;14.38;;
6475;SDS011;3271;51.910;5.840;2023-02-11T08:04:18;18.90;;;13.77;;
6475;SDS011;3271;51.910;5.840;2023-02-11T08:06:44;18.63;;;12.55;;
6475;SDS011;3271;51.910;5.840;2023-02-11T08:09:12;20.27;;;12.48;;
6475;SDS011;3271;51.910;5.840;2023-02-11T08:11:39;20.33;;;14.02;;
6475;SDS011;3271;51.910;5.840;2023-02-11T08:14:05;21.00;;;13.80;;
6475;SDS011;3271;51.910;5.840;2023-02-11T08:16:34;17.90;;;12.35;;
6475;SDS011;3271;51.910;5.840;2023-02-11T08:19:01;19.83;;;13.25;;
6475;SDS011;3271;51.910;5.840;2023-02-11T08:21:28;23.73;;;13.55;;
6475;SDS011;3271;51.910;5.840;2023-02-11T08:23:54;21.42;;;12.65;;
6475;SDS011;3271;51.910;5.840;2023-02-11T08:26:21;21.98;;;14.02;;
6475;SDS011;3271;51.910;5.840;2023-02-11T08:28:48;25.77;;;15.43;;
6475;SDS011;3271;51.910;5.840;2023-02-11T08:31:15;18.00;;;12.68;;
6475;SDS011;3271;51.910;5.840;2023-02-11T08:33:42;20.77;;;14.05;;
6475;SDS011;3271;51.910;5.840;2023-02-11T08:36:08;25.00;;;15.45;;
6475;SDS011;3271;51.910;5.840;2023-02-11T08:38:35;23.48;;;14.63;;
6475;SDS011;3271;51.910;5.840;2023-02-11T08:41:01;20.63;;;13.82;;
6475;SDS011;3271;51.910;5.840;2023-02-11T08:43:26;25.20;;;16.65;;
6475;SDS011;3271;51.910;5.840;2023-02-11T08:45:53;22.23;;;16.27;;
6475;SDS011;3271;51.910;5.840;2023-02-11T08:48:19;26.65;;;17.00;;
6475;SDS011;3271;51.910;5.840;2023-02-11T08:50:45;24.10;;;16.40;;
6475;SDS011;3271;51.910;5.840;2023-02-11T08:53:11;26.60;;;16.48;;
6475;SDS011;3271;51.910;5.840;2023-02-11T08:55:37;21.38;;;15.80;;
6475;SDS011;3271;51.910;5.840;2023-02-11T08:58:03;22.70;;;16.38;;
6475;SDS011;3271;51.910;5.840;2023-02-11T09:00:29;25.60;;;18.00;;
6475;SDS011;3271;51.910;5.840;2023-02-11T09:02:55;29.42;;;18.27;;
6475;SDS011;3271;51.910;5.840;2023-02-11T09:05:21;27.23;;;20.17;;
6475;SDS011;3271;51.910;5.840;2023-02-11T09:07:47;26.58;;;16.95;;
6475;SDS011;3271;51.910;5.840;2023-02-11T09:10:13;27.58;;;17.05;;
6475;SDS011;3271;51.910;5.840;2023-02-11T09:12:39;28.60;;;18.17;;
6475;SDS011;3271;51.910;5.840;2023-02-11T09:15:05;25.38;;;17.55;;
6475;SDS011;3271;51.910;5.840;2023-02-11T09:17:31;29.52;;;20.15;;
6475;SDS011;3271;51.910;5.840;2023-02-11T09:19:57;26.27;;;17.40;;
6475;SDS011;3271;51.910;5.840;2023-02-11T09:22:23;28.95;;;19.40;;
6475;SDS011;3271;51.910;5.840;2023-02-11T09:24:49;27.27;;;18.70;;
6475;SDS011;3271;51.910;5.840;2023-02-11T09:27:15;28.77;;;18.58;;
6475;SDS011;3271;51.910;5.840;2023-02-11T09:29:41;22.33;;;15.70;;
6475;SDS011;3271;51.910;5.840;2023-02-11T09:32:06;27.85;;;17.48;;
6475;SDS011;3271;51.910;5.840;2023-02-11T09:34:32;29.48;;;19.48;;
6475;SDS011;3271;51.910;5.840;2023-02-11T09:36:58;24.95;;;18.08;;
6475;SDS011;3271;51.910;5.840;2023-02-11T09:39:24;27.40;;;18.65;;
6475;SDS011;3271;51.910;5.840;2023-02-11T09:44:19;30.92;;;20.55;;
6475;SDS011;3271;51.910;5.840;2023-02-11T09:46:46;30.23;;;19.88;;
6475;SDS011;3271;51.910;5.840;2023-02-11T09:49:16;26.40;;;17.77;;
6475;SDS011;3271;51.910;5.840;2023-02-11T09:51:45;29.65;;;20.95;;
6475;SDS011;3271;51.910;5.840;2023-02-11T09:54:55;26.35;;;18.80;;
6475;SDS011;3271;51.910;5.840;2023-02-11T09:57:02;27.25;;;19.10;;
6475;SDS011;3271;51.910;5.840;2023-02-11T09:59:29;28.30;;;18.23;;
6475;SDS011;3271;51.910;5.840;2023-02-11T10:01:56;27.80;;;19.15;;
6475;SDS011;3271;51.910;5.840;2023-02-11T10:04:43;26.48;;;18.50;;
6475;SDS011;3271;51.910;5.840;2023-02-11T10:12:21;26.00;;;18.35;;
6475;SDS011;3271;51.910;5.840;2023-02-11T10:15:12;27.38;;;19.13;;
6475;SDS011;3271;51.910;5.840;2023-02-11T10:20:24;27.33;;;18.60;;
6475;SDS011;3271;51.910;5.840;2023-02-11T10:22:54;25.23;;;19.35;;
6475;SDS011;3271;51.910;5.840;2023-02-11T10:27:48;26.27;;;18.85;;
6475;SDS011;3271;51.910;5.840;2023-02-11T10:30:22;27.02;;;18.67;;
6475;SDS011;3271;51.910;5.840;2023-02-11T10:32:53;26.20;;;18.60;;
6475;SDS011;3271;51.910;5.840;2023-02-11T10:35:21;23.90;;;17.90;;
6475;SDS011;3271;51.910;5.840;2023-02-11T10:37:48;22.58;;;17.45;;
6475;SDS011;3271;51.910;5.840;2023-02-11T10:40:15;27.08;;;18.73;;
6475;SDS011;3271;51.910;5.840;2023-02-11T10:42:42;25.27;;;17.52;;
6475;SDS011;3271;51.910;5.840;2023-02-11T10:45:15;22.38;;;16.73;;
6475;SDS011;3271;51.910;5.840;2023-02-11T10:47:42;24.30;;;18.10;;
6475;SDS011;3271;51.910;5.840;2023-02-11T10:53:10;19.50;;;14.68;;
6475;SDS011;3271;51.910;5.840;2023-02-11T10:55:37;22.75;;;15.73;;
6475;SDS011;3271;51.910;5.840;2023-02-11T10:58:03;20.63;;;15.70;;
6475;SDS011;3271;51.910;5.840;2023-02-11T11:02:57;19.67;;;15.10;;
6475;SDS011;3271;51.910;5.840;2023-02-11T11:05:31;20.58;;;14.45;;
6475;SDS011;3271;51.910;5.840;2023-02-11T11:08:06;20.75;;;14.68;;
6475;SDS011;3271;51.910;5.840;2023-02-11T11:10:35;19.33;;;15.18;;
6475;SDS011;3271;51.910;5.840;2023-02-11T11:13:13;19.80;;;14.55;;
6475;SDS011;3271;51.910;5.840;2023-02-11T11:15:48;18.92;;;14.98;;
6475;SDS011;3271;51.910;5.840;2023-02-11T11:18:30;19.08;;;15.18;;
6475;SDS011;3271;51.910;5.840;2023-02-11T11:21:00;19.02;;;13.93;;
6475;SDS011;3271;51.910;5.840;2023-02-11T11:23:30;17.48;;;13.27;;
6475;SDS011;3271;51.910;5.840;2023-02-11T11:28:25;16.67;;;12.82;;
6475;SDS011;3271;51.910;5.840;2023-02-11T11:30:52;15.35;;;12.90;;
6475;SDS011;3271;51.910;5.840;2023-02-11T11:33:20;16.10;;;12.77;;
6475;SDS011;3271;51.910;5.840;2023-02-11T11:35:54;18.38;;;13.88;;
6475;SDS011;3271;51.910;5.840;2023-02-11T11:38:22;14.13;;;12.18;;
6475;SDS011;3271;51.910;5.840;2023-02-11T11:40:48;14.45;;;10.77;;
6475;SDS011;3271;51.910;5.840;2023-02-11T11:43:34;13.80;;;10.43;;
6475;SDS011;3271;51.910;5.840;2023-02-11T11:46:01;17.33;;;11.75;;
6475;SDS011;3271;51.910;5.840;2023-02-11T11:48:30;17.52;;;13.27;;
6475;SDS011;3271;51.910;5.840;2023-02-11T11:50:58;15.20;;;12.43;;
6475;SDS011;3271;51.910;5.840;2023-02-11T11:53:28;15.73;;;11.63;;
6475;SDS011;3271;51.910;5.840;2023-02-11T11:55:59;12.80;;;11.05;;
6475;SDS011;3271;51.910;5.840;2023-02-11T11:58:26;17.00;;;11.50;;
6475;SDS011;3271;51.910;5.840;2023-02-11T12:06:10;12.50;;;10.55;;
6475;SDS011;3271;51.910;5.840;2023-02-11T12:08:42;14.70;;;11.10;;
6475;SDS011;3271;51.910;5.840;2023-02-11T12:11:21;11.15;;;9.52;;
6475;SDS011;3271;51.910;5.840;2023-02-11T12:16:27;15.05;;;11.50;;
6475;SDS011;3271;51.910;5.840;2023-02-11T12:24:14;12.85;;;10.25;;
6475;SDS011;3271;51.910;5.840;2023-02-11T12:37:25;11.77;;;9.02;;
6475;SDS011;3271;51.910;5.840;2023-02-11T12:40:08;11.07;;;8.50;;
6475;SDS011;3271;51.910;5.840;2023-02-11T12:42:42;11.95;;;9.02;;
6475;SDS011;3271;51.910;5.840;2023-02-11T12:45:33;10.13;;;8.25;;
6475;SDS011;3271;51.910;5.840;2023-02-11T12:48:06;10.40;;;8.68;;
6475;SDS011;3271;51.910;5.840;2023-02-11T12:55:39;10.70;;;9.15;;
6475;SDS011;3271;51.910;5.840;2023-02-11T12:58:10;10.40;;;8.15;;
6475;SDS011;3271;51.910;5.840;2023-02-11T13:00:44;10.98;;;8.55;;
6475;SDS011;3271;51.910;5.840;2023-02-11T13:03:12;13.23;;;8.95;;
6475;SDS011;3271;51.910;5.840;2023-02-11T13:05:42;11.00;;;8.40;;
6475;SDS011;3271;51.910;5.840;2023-02-11T13:10:35;10.88;;;9.70;;
6475;SDS011;3271;51.910;5.840;2023-02-11T13:13:03;11.02;;;9.35;;
6475;SDS011;3271;51.910;5.840;2023-02-11T13:16:26;15.05;;;9.35;;
6475;SDS011;3271;51.910;5.840;2023-02-11T13:23:37;10.07;;;8.25;;
6475;SDS011;3271;51.910;5.840;2023-02-11T13:26:18;12.15;;;8.57;;
6475;SDS011;3271;51.910;5.840;2023-02-11T13:31:29;9.55;;;8.23;;
6475;SDS011;3271;51.910;5.840;2023-02-11T13:33:56;12.73;;;10.27;;
6475;SDS011;3271;51.910;5.840;2023-02-11T13:36:32;12.90;;;8.10;;
6475;SDS011;3271;51.910;5.840;2023-02-11T13:39:00;9.18;;;8.20;;
6475;SDS011;3271;51.910;5.840;2023-02-11T13:41:28;9.85;;;8.85;;
6475;SDS011;3271;51.910;5.840;2023-02-11T13:43:58;13.73;;;9.98;;
6475;SDS011;3271;51.910;5.840;2023-02-11T13:46:25;10.70;;;9.57;;
6475;SDS011;3271;51.910;5.840;2023-02-11T13:48:52;9.60;;;8.68;;
6475;SDS011;3271;51.910;5.840;2023-02-11T13:51:37;9.88;;;8.88;;
6475;SDS011;3271;51.910;5.840;2023-02-11T13:54:04;12.02;;;8.50;;
6475;SDS011;3271;51.910;5.840;2023-02-11T13:56:35;11.00;;;8.13;;
6475;SDS011;3271;51.910;5.840;2023-02-11T13:59:03;10.40;;;8.23;;
6475;SDS011;3271;51.910;5.840;2023-02-11T14:01:39;10.60;;;7.78;;
6475;SDS011;3271;51.910;5.840;2023-02-11T14:04:22;10.75;;;8.32;;
6475;SDS011;3271;51.910;5.840;2023-02-11T14:07:28;9.57;;;8.13;;
6475;SDS011;3271;51.910;5.840;2023-02-11T14:10:46;10.27;;;8.32;;
6475;SDS011;3271;51.910;5.840;2023-02-11T14:13:04;8.95;;;7.75;;
6475;SDS011;3271;51.910;5.840;2023-02-11T14:15:37;9.07;;;8.15;;
6475;SDS011;3271;51.910;5.840;2023-02-11T14:18:34;10.82;;;8.65;;
6475;SDS011;3271;51.910;5.840;2023-02-11T14:20:49;14.00;;;8.43;;
6475;SDS011;3271;51.910;5.840;2023-02-11T14:23:23;12.35;;;8.13;;
6475;SDS011;3271;51.910;5.840;2023-02-11T14:25:57;8.65;;;7.57;;
6475;SDS011;3271;51.910;5.840;2023-02-11T14:28:25;8.85;;;7.85;;
6475;SDS011;3271;51.910;5.840;2023-02-11T14:31:06;10.32;;;7.40;;
6475;SDS011;3271;51.910;5.840;2023-02-11T14:33:39;9.57;;;7.75;;
6475;SDS011;3271;51.910;5.840;2023-02-11T14:36:13;9.68;;;7.47;;
6475;SDS011;3271;51.910;5.840;2023-02-11T14:41:30;8.60;;;7.70;;
6475;SDS011;3271;51.910;5.840;2023-02-11T14:44:00;10.63;;;7.20;;
6475;SDS011;3271;51.910;5.840;2023-02-11T14:46:28;12.80;;;9.18;;
6475;SDS011;3271;51.910;5.840;2023-02-11T14:48:57;14.30;;;12.85;;
6475;SDS011;3271;51.910;5.840;2023-02-11T14:51:24;17.90;;;14.38;;
6475;SDS011;3271;51.910;5.840;2023-02-11T14:53:52;19.08;;;15.00;;
6475;SDS011;3271;51.910;5.840;2023-02-11T14:56:20;17.45;;;14.32;;
6475;SDS011;3271;51.910;5.840;2023-02-11T14:58:48;13.50;;;12.02;;
6475;SDS011;3271;51.910;5.840;2023-02-11T15:01:29;12.43;;;9.65;;
6475;SDS011;3271;51.910;5.840;2023-02-11T15:03:56;12.25;;;10.02;;
6475;SDS011;3271;51.910;5.840;2023-02-11T15:06:25;14.85;;;12.18;;
6475;SDS011;3271;51.910;5.840;2023-02-11T15:08:54;16.30;;;13.23;;
6475;SDS011;3271;51.910;5.840;2023-02-11T15:11:22;13.68;;;10.73;;
6475;SDS011;3271;51.910;5.840;2023-02-11T15:13:49;9.20;;;8.23;;
6475;SDS011;3271;51.910;5.840;2023-02-11T15:16:16;9.32;;;8.18;;
6475;SDS011;3271;51.910;5.840;2023-02-11T15:19:05;9.48;;;8.40;;
6475;SDS011;3271;51.910;5.840;2023-02-11T15:21:30;9.68;;;8.23;;
6475;SDS011;3271;51.910;5.840;2023-02-11T15:26:23;11.52;;;8.68;;
6475;SDS011;3271;51.910;5.840;2023-02-11T15:28:49;9.10;;;7.55;;
6475;SDS011;3271;51.910;5.840;2023-02-11T15:31:21;10.13;;;8.13;;
6475;SDS011;3271;51.910;5.840;2023-02-11T15:33:49;9.52;;;7.80;;
6475;SDS011;3271;51.910;5.840;2023-02-11T15:36:15;8.68;;;6.60;;
6475;SDS011;3271;51.910;5.840;2023-02-11T15:38:42;8.65;;;7.03;;
6475;SDS011;3271;51.910;5.840;2023-02-11T15:41:34;9.10;;;7.30;;
6475;SDS011;3271;51.910;5.840;2023-02-11T15:43:54;8.48;;;7.57;;
6475;SDS011;3271;51.910;5.840;2023-02-11T15:46:21;10.05;;;9.05;;
6475;SDS011;3271;51.910;5.840;2023-02-11T15:48:48;9.43;;;8.35;;
6475;SDS011;3271;51.910;5.840;2023-02-11T15:51:19;14.13;;;10.88;;
6475;SDS011;3271;51.910;5.840;2023-02-11T15:53:50;12.98;;;9.45;;
6475;SDS011;3271;51.910;5.840;2023-02-11T15:56:24;16.55;;;11.52;;
6475;SDS011;3271;51.910;5.840;2023-02-11T15:58:54;11.07;;;9.98;;
6475;SDS011;3271;51.910;5.840;2023-02-11T16:01:30;8.60;;;7.25;;
6475;SDS011;3271;51.910;5.840;2023-02-11T16:03:57;20.52;;;15.23;;
6475;SDS011;3271;51.910;5.840;2023-02-11T16:06:24;11.05;;;8.82;;
6475;SDS011;3271;51.910;5.840;2023-02-11T16:11:32;12.30;;;10.77;;
6475;SDS011;3271;51.910;5.840;2023-02-11T16:13:59;10.43;;;9.35;;
6475;SDS011;3271;51.910;5.840;2023-02-11T16:16:27;12.77;;;11.57;;
6475;SDS011;3271;51.910;5.840;2023-02-11T16:18:55;12.45;;;10.45;;
6475;SDS011;3271;51.910;5.840;2023-02-11T16:21:23;13.73;;;10.80;;
6475;SDS011;3271;51.910;5.840;2023-02-11T16:23:54;15.48;;;12.38;;
6475;SDS011;3271;51.910;5.840;2023-02-11T16:26:23;15.43;;;13.93;;
6475;SDS011;3271;51.910;5.840;2023-02-11T16:28:51;30.48;;;27.42;;
6475;SDS011;3271;51.910;5.840;2023-02-11T16:31:17;39.42;;;35.42;;
6475;SDS011;3271;51.910;5.840;2023-02-11T16:33:43;19.30;;;17.40;;
6475;SDS011;3271;51.910;5.840;2023-02-11T16:36:12;16.73;;;12.95;;
6475;SDS011;3271;51.910;5.840;2023-02-11T16:38:39;15.27;;;10.75;;
6475;SDS011;3271;51.910;5.840;2023-02-11T16:41:05;19.40;;;16.02;;
6475;SDS011;3271;51.910;5.840;2023-02-11T16:43:35;14.93;;;11.98;;
6475;SDS011;3271;51.910;5.840;2023-02-11T16:46:01;15.65;;;14.05;;
6475;SDS011;3271;51.910;5.840;2023-02-11T16:48:27;12.15;;;10.85;;
6475;SDS011;3271;51.910;5.840;2023-02-11T16:50:53;13.75;;;11.15;;
6475;SDS011;3271;51.910;5.840;2023-02-11T16:53:21;12.20;;;10.90;;